createdAt,value
2018-09-20T00:00:55.907Z,0.00
2018-09-20T00:02:48.550Z,0.00
2018-09-20T00:03:48.238Z,0.00
2018-09-20T00:05:43.182Z,0.00
2018-09-20T00:06:41.617Z,0.00
2018-09-20T00:08:34.850Z,0.00
2018-09-20T00:09:34.777Z,0.00
2018-09-20T00:11:27.600Z,0.00
2018-09-20T00:12:27.369Z,0.00
2018-09-20T00:14:22.124Z,0.00
2018-09-20T00:15:20.727Z,0.00
2018-09-20T00:17:14.387Z,0.00
2018-09-20T00:18:14.097Z,0.00
2018-09-20T00:20:07.506Z,0.00
2018-09-20T00:21:07.714Z,0.00
2018-09-20T00:23:00.844Z,0.00
2018-09-20T00:24:00.865Z,0.00
2018-09-20T00:25:54.279Z,0.00
2018-09-20T00:26:54.488Z,0.00
2018-09-20T00:28:47.139Z,0.00
2018-09-20T00:29:47.085Z,0.00
2018-09-20T00:31:41.735Z,0.00
2018-09-20T00:32:41.449Z,0.00
2018-09-20T00:34:35.076Z,0.00
2018-09-20T00:35:34.812Z,0.00
2018-09-20T00:37:28.126Z,0.00
2018-09-20T00:38:27.689Z,0.00
2018-09-20T00:40:21.365Z,0.00
2018-09-20T00:41:21.057Z,0.00
2018-09-20T00:43:15.753Z,0.00
2018-09-20T00:44:15.451Z,0.00
2018-09-20T00:46:09.143Z,0.00
2018-09-20T00:47:09.116Z,0.00
2018-09-20T00:49:02.559Z,0.00
2018-09-20T00:50:01.716Z,0.00
2018-09-20T00:51:56.435Z,0.00
2018-09-20T00:52:56.321Z,0.00
2018-09-20T00:54:49.999Z,0.00
2018-09-20T00:55:49.468Z,0.00
2018-09-20T00:57:43.619Z,0.00
2018-09-20T00:58:42.791Z,0.00
2018-09-20T01:00:38.977Z,0.00
2018-09-20T01:01:38.675Z,0.00
2018-09-20T01:03:32.346Z,0.00
2018-09-20T01:04:32.023Z,0.00
2018-09-20T01:06:25.728Z,0.00
2018-09-20T01:07:25.664Z,0.00
2018-09-20T01:09:19.111Z,0.00
2018-09-20T01:10:19.296Z,0.00
2018-09-20T01:12:12.179Z,0.00
2018-09-20T01:13:12.133Z,0.00
2018-09-20T01:15:05.194Z,0.00
2018-09-20T01:16:05.592Z,0.00
2018-09-20T01:17:58.608Z,0.00
2018-09-20T01:18:58.378Z,0.00
2018-09-20T01:20:52.498Z,0.00
2018-09-20T01:21:51.759Z,0.00
2018-09-20T01:23:44.881Z,0.00
2018-09-20T01:24:44.675Z,0.00
2018-09-20T01:26:38.196Z,0.00
2018-09-20T01:27:38.003Z,0.00
2018-09-20T01:29:31.487Z,0.00
2018-09-20T01:30:31.368Z,0.00
2018-09-20T01:32:24.760Z,0.00
2018-09-20T01:33:25.309Z,0.00
2018-09-20T01:35:18.489Z,0.00
2018-09-20T01:36:18.099Z,0.00
2018-09-20T01:38:12.304Z,0.00
2018-09-20T01:39:11.454Z,0.00
2018-09-20T01:41:05.102Z,0.00
2018-09-20T01:42:04.842Z,0.00
2018-09-20T01:43:58.238Z,0.00
2018-09-20T01:44:58.217Z,0.00
2018-09-20T01:46:52.456Z,0.00
2018-09-20T01:47:52.154Z,0.00
2018-09-20T01:49:46.420Z,0.00
2018-09-20T01:50:44.998Z,0.00
2018-09-20T01:52:38.618Z,0.00
2018-09-20T01:53:38.373Z,0.00
2018-09-20T01:55:32.028Z,0.00
2018-09-20T01:56:31.735Z,0.00
2018-09-20T01:58:25.480Z,0.00
2018-09-20T01:59:24.660Z,0.00
2018-09-20T02:01:18.055Z,0.00
2018-09-20T02:02:17.986Z,0.00
2018-09-20T02:04:11.155Z,0.00
2018-09-20T02:05:10.851Z,0.00
2018-09-20T02:07:04.499Z,0.00
2018-09-20T02:08:04.237Z,0.00
2018-09-20T02:09:57.618Z,0.00
2018-09-20T02:10:57.618Z,0.00
2018-09-20T02:12:51.218Z,0.00
2018-09-20T02:13:50.976Z,0.00
2018-09-20T02:15:44.093Z,0.00
2018-09-20T02:16:44.054Z,0.00
2018-09-20T02:18:37.475Z,0.00
2018-09-20T02:19:37.208Z,0.00
2018-09-20T02:21:30.664Z,0.00
2018-09-20T02:22:30.099Z,0.00
2018-09-20T02:24:24.773Z,0.00
2018-09-20T02:25:24.717Z,0.00
2018-09-20T02:27:18.067Z,0.00
2018-09-20T02:28:17.837Z,0.00
2018-09-20T02:30:11.504Z,0.00
2018-09-20T02:31:11.205Z,0.00
2018-09-20T02:33:04.396Z,0.00
2018-09-20T02:34:04.078Z,0.00
2018-09-20T02:35:58.552Z,0.00
2018-09-20T02:36:58.458Z,0.00
2018-09-20T02:38:52.119Z,0.00
2018-09-20T02:39:51.830Z,0.00
2018-09-20T02:41:45.487Z,0.00
2018-09-20T02:42:45.173Z,0.00
2018-09-20T02:44:38.789Z,0.00
2018-09-20T02:45:38.593Z,0.00
2018-09-20T02:47:31.971Z,0.00
2018-09-20T02:48:32.139Z,0.00
2018-09-20T02:50:25.522Z,0.00
2018-09-20T02:51:25.284Z,0.00
2018-09-20T02:53:18.186Z,0.00
2018-09-20T02:54:18.156Z,0.00
2018-09-20T02:56:11.283Z,0.00
2018-09-20T02:57:11.035Z,0.00
2018-09-20T02:59:04.690Z,0.00
2018-09-20T03:00:04.392Z,0.00
2018-09-20T03:01:58.144Z,0.00
2018-09-20T03:02:57.759Z,0.00
2018-09-20T03:04:51.376Z,0.00
2018-09-20T03:05:51.119Z,0.00
2018-09-20T03:07:44.284Z,0.00
2018-09-20T03:08:43.986Z,0.00
2018-09-20T03:10:37.133Z,0.00
2018-09-20T03:11:36.902Z,0.00
2018-09-20T03:13:30.305Z,0.00
2018-09-20T03:14:30.238Z,0.00
2018-09-20T03:16:24.648Z,0.00
2018-09-20T03:17:24.624Z,0.00
2018-09-20T03:19:18.083Z,0.00
2018-09-20T03:20:18.266Z,0.00
2018-09-20T03:22:10.891Z,0.00
2018-09-20T03:23:10.876Z,0.00
2018-09-20T03:25:04.568Z,0.00
2018-09-20T03:26:04.486Z,0.00
2018-09-20T03:27:57.915Z,0.00
2018-09-20T03:28:57.599Z,0.00
2018-09-20T03:30:51.283Z,0.00
2018-09-20T03:31:51.308Z,0.00
2018-09-20T03:33:44.412Z,0.00
2018-09-20T03:34:44.519Z,0.00
2018-09-20T03:36:37.289Z,0.00
2018-09-20T03:37:37.243Z,0.00
2018-09-20T03:39:30.858Z,0.00
2018-09-20T03:40:30.577Z,0.00
2018-09-20T03:42:23.660Z,0.00
2018-09-20T03:43:23.452Z,0.00
2018-09-20T03:45:16.554Z,0.00
2018-09-20T03:46:16.394Z,0.00
2018-09-20T03:48:10.006Z,0.00
2018-09-20T03:49:09.726Z,0.00
2018-09-20T03:51:04.001Z,0.00
2018-09-20T03:52:03.398Z,0.00
2018-09-20T03:53:56.651Z,0.00
2018-09-20T03:54:56.427Z,0.00
2018-09-20T03:56:50.059Z,0.00
2018-09-20T03:57:49.790Z,0.00
2018-09-20T03:59:43.495Z,0.00
2018-09-20T04:00:43.221Z,0.00
2018-09-20T04:02:36.848Z,0.00
2018-09-20T04:03:36.587Z,0.00
2018-09-20T04:05:30.238Z,0.00
2018-09-20T04:06:29.993Z,0.00
2018-09-20T04:08:24.451Z,0.00
2018-09-20T04:09:23.317Z,0.00
2018-09-20T04:11:17.528Z,0.00
2018-09-20T04:12:16.736Z,0.00
2018-09-20T04:14:10.169Z,0.00
2018-09-20T04:15:09.838Z,0.00
2018-09-20T04:17:03.247Z,0.00
2018-09-20T04:18:02.996Z,0.00
2018-09-20T04:19:55.850Z,0.00
2018-09-20T04:20:55.859Z,0.00
2018-09-20T04:22:49.708Z,0.00
2018-09-20T04:23:49.637Z,0.00
2018-09-20T04:25:42.582Z,0.00
2018-09-20T04:26:42.572Z,0.00
2018-09-20T04:28:36.929Z,0.00
2018-09-20T04:29:36.901Z,0.00
2018-09-20T04:31:29.956Z,0.00
2018-09-20T04:32:29.817Z,0.00
2018-09-20T04:34:23.037Z,0.00
2018-09-20T04:35:22.788Z,0.00
2018-09-20T04:37:15.613Z,0.00
2018-09-20T04:38:15.631Z,0.00
2018-09-20T04:40:09.235Z,0.00
2018-09-20T04:41:08.944Z,0.00
2018-09-20T04:43:02.394Z,0.00
2018-09-20T04:44:02.315Z,0.00
2018-09-20T04:45:56.086Z,0.00
2018-09-20T04:46:55.679Z,0.00
2018-09-20T04:48:49.410Z,0.00
2018-09-20T04:49:49.079Z,4.00
2018-09-20T04:51:42.697Z,4.00
2018-09-20T04:52:42.729Z,4.00
2018-09-20T04:54:35.617Z,8.00
2018-09-20T04:55:35.613Z,8.00
2018-09-20T04:57:28.971Z,8.00
2018-09-20T04:58:28.157Z,8.00
2018-09-20T05:00:22.689Z,16.00
2018-09-20T05:01:21.028Z,16.00
2018-09-20T05:03:14.591Z,20.00
2018-09-20T05:04:14.990Z,24.00
2018-09-20T05:06:08.015Z,28.00
2018-09-20T05:07:07.803Z,32.00
2018-09-20T05:09:01.517Z,40.00
2018-09-20T05:10:01.176Z,44.00
2018-09-20T05:11:54.536Z,52.00
2018-09-20T05:12:54.515Z,56.00
2018-09-20T05:14:47.930Z,72.00
2018-09-20T05:15:48.468Z,80.00
2018-09-20T05:17:42.789Z,100.00
2018-09-20T05:18:42.743Z,112.00
2018-09-20T05:20:36.057Z,132.00
2018-09-20T05:21:35.738Z,144.00
2018-09-20T05:23:29.522Z,164.00
2018-09-20T05:24:29.021Z,176.00
2018-09-20T05:26:23.817Z,200.00
2018-09-20T05:27:23.798Z,212.00
2018-09-20T05:29:16.845Z,248.00
2018-09-20T05:30:17.178Z,260.00
2018-09-20T05:32:10.520Z,288.00
2018-09-20T05:33:10.238Z,304.00
2018-09-20T05:35:03.779Z,324.00
2018-09-20T05:36:03.854Z,336.00
2018-09-20T05:37:56.752Z,368.00
2018-09-20T05:38:56.657Z,392.00
2018-09-20T05:40:50.553Z,444.00
2018-09-20T05:41:49.656Z,468.00
2018-09-20T05:43:45.655Z,492.00
2018-09-20T05:44:45.452Z,504.00
2018-09-20T05:46:42.730Z,536.00
2018-09-20T05:47:41.405Z,540.00
2018-09-20T05:49:34.817Z,560.00
2018-09-20T05:50:34.754Z,572.00
2018-09-20T05:52:28.117Z,612.00
2018-09-20T05:53:27.804Z,636.00
2018-09-20T05:55:23.978Z,708.00
2018-09-20T05:56:22.516Z,736.00
2018-09-20T05:58:15.910Z,776.00
2018-09-20T05:59:15.564Z,780.00
2018-09-20T06:01:10.312Z,780.00
2018-09-20T06:02:09.866Z,784.00
2018-09-20T06:04:03.440Z,816.00
2018-09-20T06:05:03.297Z,824.00
2018-09-20T06:06:56.132Z,840.00
2018-09-20T06:07:56.152Z,848.00
2018-09-20T06:09:49.504Z,888.00
2018-09-20T06:10:49.477Z,896.00
2018-09-20T06:12:42.946Z,928.00
2018-09-20T06:13:42.856Z,952.00
2018-09-20T06:15:36.226Z,1000.00
2018-09-20T06:16:36.207Z,1016.00
2018-09-20T06:18:29.645Z,1056.00
2018-09-20T06:19:29.586Z,1076.00
2018-09-20T06:21:24.028Z,1100.00
2018-09-20T06:22:22.955Z,1104.00
2018-09-20T06:24:16.662Z,1120.00
2018-09-20T06:25:16.355Z,1144.00
2018-09-20T06:27:09.975Z,1196.00
2018-09-20T06:28:09.687Z,1208.00
2018-09-20T06:30:03.715Z,1296.00
2018-09-20T06:31:03.409Z,1328.00
2018-09-20T06:32:56.303Z,1416.00
2018-09-20T06:33:56.297Z,1304.00
2018-09-20T06:35:49.214Z,1516.00
2018-09-20T06:36:49.295Z,1564.00
2018-09-20T06:38:42.591Z,1624.00
2018-09-20T06:39:42.606Z,1316.00
2018-09-20T06:41:36.541Z,1680.00
2018-09-20T06:42:36.289Z,1540.00
2018-09-20T06:44:29.306Z,1856.00
2018-09-20T06:45:29.101Z,1952.00
2018-09-20T06:47:22.460Z,1900.00
2018-09-20T06:48:22.426Z,2108.00
2018-09-20T06:50:16.708Z,1592.00
2018-09-20T06:51:17.684Z,1832.00
2018-09-20T06:53:10.243Z,1776.00
2018-09-20T06:54:10.028Z,2064.00
2018-09-20T06:56:03.527Z,2132.00
2018-09-20T06:57:03.417Z,2096.00
2018-09-20T06:58:56.840Z,2112.00
2018-09-20T06:59:56.791Z,2048.00
2018-09-20T07:01:49.708Z,2080.00
2018-09-20T07:02:49.699Z,2060.00
2018-09-20T07:04:42.565Z,1992.00
2018-09-20T07:05:42.566Z,2016.00
2018-09-20T07:07:36.082Z,1832.00
2018-09-20T07:08:35.930Z,1808.00
2018-09-20T07:10:28.907Z,1968.00
2018-09-20T07:11:29.495Z,2036.00
2018-09-20T07:13:22.787Z,1952.00
2018-09-20T07:14:22.776Z,2032.00
2018-09-20T07:16:18.465Z,2048.00
2018-09-20T07:17:15.670Z,2044.00
2018-09-20T07:19:09.232Z,2088.00
2018-09-20T07:20:09.053Z,2092.00
2018-09-20T07:22:02.463Z,2084.00
2018-09-20T07:23:02.426Z,2116.00
2018-09-20T07:25:46.471Z,2048.00
2018-09-20T07:26:46.533Z,2060.00
2018-09-20T07:28:39.904Z,1596.00
2018-09-20T07:29:39.797Z,1480.00
2018-09-20T07:31:32.692Z,1472.00
2018-09-20T07:32:32.701Z,1440.00
2018-09-20T07:34:26.083Z,1572.00
2018-09-20T07:35:26.071Z,2224.00
2018-09-20T07:37:19.063Z,2268.00
2018-09-20T07:38:19.062Z,2248.00
2018-09-20T07:40:12.055Z,2256.00
2018-09-20T07:41:11.947Z,2260.00
2018-09-20T07:43:06.632Z,2276.00
2018-09-20T07:44:05.334Z,2276.00
2018-09-20T07:45:58.745Z,2268.00
2018-09-20T07:46:58.719Z,2248.00
2018-09-20T07:48:51.764Z,2304.00
2018-09-20T07:49:51.734Z,2324.00
2018-09-20T07:51:45.128Z,2364.00
2018-09-20T07:52:45.118Z,2372.00
2018-09-20T07:54:38.543Z,2412.00
2018-09-20T07:55:38.514Z,2448.00
2018-09-20T07:57:31.523Z,2556.00
2018-09-20T07:58:31.412Z,2828.00
2018-09-20T08:00:24.414Z,3116.00
2018-09-20T08:01:24.392Z,3112.00
2018-09-20T08:03:17.698Z,2896.00
2018-09-20T08:04:17.673Z,2924.00
2018-09-20T08:06:11.153Z,2660.00
2018-09-20T08:07:12.608Z,2604.00
2018-09-20T08:09:04.078Z,2556.00
2018-09-20T08:10:04.062Z,2544.00
2018-09-20T08:11:57.468Z,2676.00
2018-09-20T08:12:57.496Z,2544.00
2018-09-20T08:15:42.549Z,2368.00
2018-09-20T08:16:41.528Z,2324.00
2018-09-20T08:18:34.857Z,2204.00
2018-09-20T08:19:34.881Z,2120.00
2018-09-20T08:21:27.771Z,2060.00
2018-09-20T08:22:27.733Z,2040.00
2018-09-20T08:24:21.162Z,2004.00
2018-09-20T08:25:21.115Z,1992.00
2018-09-20T08:27:14.025Z,1988.00
2018-09-20T08:28:14.001Z,2028.00
2018-09-20T08:30:06.953Z,1968.00
2018-09-20T08:31:06.903Z,1920.00
2018-09-20T08:33:00.360Z,1876.00
2018-09-20T08:34:00.289Z,1872.00
2018-09-20T08:35:53.692Z,1856.00
2018-09-20T08:36:53.670Z,1828.00
2018-09-20T08:38:46.570Z,1800.00
2018-09-20T08:39:46.559Z,1776.00
2018-09-20T08:41:43.981Z,1728.00
2018-09-20T08:42:39.593Z,1708.00
2018-09-20T08:44:32.890Z,1708.00
2018-09-20T08:45:32.889Z,1712.00
2018-09-20T08:47:26.307Z,1700.00
2018-09-20T08:48:26.272Z,1708.00
2018-09-20T08:50:19.958Z,1724.00
2018-09-20T08:51:19.665Z,1712.00
2018-09-20T08:53:12.702Z,1752.00
2018-09-20T08:54:12.583Z,1760.00
2018-09-20T08:56:05.980Z,1772.00
2018-09-20T08:57:06.011Z,1892.00
2018-09-20T08:58:58.852Z,2644.00
2018-09-20T08:59:58.862Z,3252.00
2018-09-20T09:01:51.765Z,3388.00
2018-09-20T09:02:51.770Z,3092.00
2018-09-20T09:04:45.170Z,3472.00
2018-09-20T09:05:46.039Z,3188.00
2018-09-20T09:07:38.544Z,3604.00
2018-09-20T09:08:38.574Z,3852.00
2018-09-20T09:10:31.421Z,4428.00
2018-09-20T09:11:31.435Z,3732.00
2018-09-20T09:13:24.810Z,2324.00
2018-09-20T09:14:24.797Z,2424.00
2018-09-20T09:16:17.705Z,3312.00
2018-09-20T09:17:17.692Z,2468.00
2018-09-20T09:19:11.366Z,3832.00
2018-09-20T09:20:11.067Z,2916.00
2018-09-20T09:22:04.538Z,2908.00
2018-09-20T09:23:04.465Z,3540.00
2018-09-20T09:24:57.356Z,4036.00
2018-09-20T09:25:57.343Z,5012.00
2018-09-20T09:27:50.750Z,3352.00
2018-09-20T09:28:50.834Z,2504.00
2018-09-20T09:30:43.767Z,2460.00
2018-09-20T09:31:43.619Z,3296.00
2018-09-20T09:33:37.391Z,3052.00
2018-09-20T09:34:37.072Z,3292.00
2018-09-20T09:36:30.416Z,2376.00
2018-09-20T09:37:30.413Z,2512.00
2018-09-20T09:39:23.816Z,2860.00
2018-09-20T09:40:23.795Z,2780.00
2018-09-20T09:42:16.738Z,2420.00
2018-09-20T09:43:16.750Z,3024.00
2018-09-20T09:45:09.608Z,2404.00
2018-09-20T09:46:09.584Z,2616.00
2018-09-20T09:48:03.081Z,3080.00
2018-09-20T09:49:02.988Z,3432.00
2018-09-20T09:50:56.937Z,2440.00
2018-09-20T09:51:56.921Z,2464.00
2018-09-20T09:53:49.842Z,2436.00
2018-09-20T09:54:49.869Z,1968.00
2018-09-20T09:56:43.273Z,1804.00
2018-09-20T09:57:43.206Z,2180.00
2018-09-20T09:59:36.180Z,2696.00
2018-09-20T10:00:36.160Z,3076.00
2018-09-20T10:02:29.500Z,2360.00
2018-09-20T10:03:29.483Z,2384.00
2018-09-20T10:05:22.472Z,2076.00
2018-09-20T10:06:22.382Z,2028.00
2018-09-20T10:08:15.382Z,1700.00
2018-09-20T10:09:15.332Z,1696.00
2018-09-20T10:11:08.729Z,1828.00
2018-09-20T10:12:08.727Z,1944.00
2018-09-20T10:14:01.621Z,2984.00
2018-09-20T10:15:01.595Z,2128.00
2018-09-20T10:16:55.086Z,1968.00
2018-09-20T10:17:54.493Z,2016.00
2018-09-20T10:19:47.927Z,2368.00
2018-09-20T10:20:47.898Z,2500.00
2018-09-20T10:22:41.314Z,2528.00
2018-09-20T10:23:41.271Z,2412.00
2018-09-20T10:25:34.870Z,2664.00
2018-09-20T10:26:34.731Z,2460.00
2018-09-20T10:28:27.632Z,2492.00
2018-09-20T10:29:27.648Z,2520.00
2018-09-20T10:31:20.625Z,2268.00
2018-09-20T10:32:20.553Z,2400.00
2018-09-20T10:34:13.520Z,2460.00
2018-09-20T10:35:13.413Z,2464.00
2018-09-20T10:37:06.905Z,2552.00
2018-09-20T10:38:06.835Z,2684.00
2018-09-20T10:39:59.731Z,2644.00
2018-09-20T10:41:00.251Z,2608.00
2018-09-20T10:42:53.103Z,2560.00
2018-09-20T10:43:53.091Z,2468.00
2018-09-20T10:45:46.133Z,2464.00
2018-09-20T10:46:46.023Z,2636.00
2018-09-20T10:48:39.418Z,2408.00
2018-09-20T10:49:39.409Z,2416.00
2018-09-20T10:51:32.809Z,2220.00
2018-09-20T10:52:32.797Z,2396.00
2018-09-20T10:54:25.770Z,2552.00
2018-09-20T10:55:25.742Z,2428.00
2018-09-20T10:57:18.681Z,2488.00
2018-09-20T10:58:18.581Z,2440.00
2018-09-20T11:00:11.493Z,2652.00
2018-09-20T11:01:11.477Z,2592.00
2018-09-20T11:03:04.434Z,2672.00
2018-09-20T11:04:04.361Z,2724.00
2018-09-20T11:05:57.286Z,2768.00
2018-09-20T11:06:57.258Z,2804.00
2018-09-20T11:08:50.680Z,2708.00
2018-09-20T11:09:50.653Z,2644.00
2018-09-20T11:11:44.049Z,2576.00
2018-09-20T11:12:44.051Z,2580.00
2018-09-20T11:14:37.187Z,2680.00
2018-09-20T11:15:36.955Z,2656.00
2018-09-20T11:17:29.856Z,2624.00
2018-09-20T11:18:29.821Z,2572.00
2018-09-20T11:20:23.228Z,2468.00
2018-09-20T11:21:23.213Z,2416.00
2018-09-20T11:23:16.220Z,2276.00
2018-09-20T11:24:17.147Z,2232.00
2018-09-20T11:26:09.617Z,2320.00
2018-09-20T11:27:09.604Z,2380.00
2018-09-20T11:29:03.010Z,2408.00
2018-09-20T11:30:02.972Z,2360.00
2018-09-20T11:31:55.991Z,2124.00
2018-09-20T11:32:55.866Z,2032.00
2018-09-20T11:34:49.274Z,1944.00
2018-09-20T11:35:49.264Z,1900.00
2018-09-20T11:37:42.655Z,1944.00
2018-09-20T11:38:42.641Z,2072.00
2018-09-20T11:40:35.674Z,2280.00
2018-09-20T11:41:35.535Z,2328.00
2018-09-20T11:43:28.447Z,2432.00
2018-09-20T11:44:28.450Z,2460.00
2018-09-20T11:46:21.415Z,2424.00
2018-09-20T11:47:21.335Z,2376.00
2018-09-20T11:49:14.760Z,2332.00
2018-09-20T11:50:14.722Z,2192.00
2018-09-20T11:52:08.178Z,1984.00
2018-09-20T11:53:08.101Z,1896.00
2018-09-20T11:55:01.518Z,1736.00
2018-09-20T11:56:01.497Z,1656.00
2018-09-20T11:57:54.908Z,1600.00
2018-09-20T11:58:54.885Z,1540.00
2018-09-20T12:00:48.319Z,1524.00
2018-09-20T12:01:48.300Z,1556.00
2018-09-20T12:03:41.270Z,1636.00
2018-09-20T12:04:41.181Z,1652.00
2018-09-20T12:06:34.554Z,1720.00
2018-09-20T12:07:34.542Z,1692.00
2018-09-20T12:09:27.956Z,1700.00
2018-09-20T12:10:27.943Z,1720.00
2018-09-20T12:12:21.431Z,1644.00
2018-09-20T12:13:21.326Z,1612.00
2018-09-20T12:15:14.794Z,1576.00
2018-09-20T12:16:14.740Z,1572.00
2018-09-20T12:18:08.227Z,1584.00
2018-09-20T12:19:08.172Z,1588.00
2018-09-20T12:21:01.110Z,1592.00
2018-09-20T12:22:01.113Z,1600.00
2018-09-20T12:23:54.468Z,1576.00
2018-09-20T12:24:54.463Z,1556.00
2018-09-20T12:26:47.964Z,1528.00
2018-09-20T12:27:47.857Z,1508.00
2018-09-20T12:29:40.766Z,1464.00
2018-09-20T12:30:40.744Z,1464.00
2018-09-20T12:32:33.793Z,1480.00
2018-09-20T12:33:33.740Z,1524.00
2018-09-20T12:35:26.829Z,1540.00
2018-09-20T12:36:26.623Z,1548.00
2018-09-20T12:38:20.094Z,1560.00
2018-09-20T12:39:20.000Z,1564.00
2018-09-20T12:41:13.484Z,1608.00
2018-09-20T12:42:13.423Z,1644.00
2018-09-20T12:44:06.390Z,1660.00
2018-09-20T12:45:06.282Z,1640.00
2018-09-20T12:46:59.740Z,1580.00
2018-09-20T12:47:59.673Z,1536.00
2018-09-20T12:49:53.113Z,1548.00
2018-09-20T12:50:53.071Z,1544.00
2018-09-20T12:52:46.617Z,1504.00
2018-09-20T12:53:46.583Z,1480.00
2018-09-20T12:55:40.133Z,1476.00
2018-09-20T12:56:39.991Z,1488.00
2018-09-20T12:58:33.435Z,1476.00
2018-09-20T12:59:33.380Z,1452.00
2018-09-20T13:01:26.763Z,1388.00
2018-09-20T13:02:26.757Z,1376.00
2018-09-20T13:04:19.660Z,1364.00
2018-09-20T13:05:19.658Z,1368.00
2018-09-20T13:07:13.035Z,1392.00
2018-09-20T13:08:13.022Z,1416.00
2018-09-20T13:10:06.433Z,1432.00
2018-09-20T13:11:06.420Z,1408.00
2018-09-20T13:13:00.968Z,1356.00
2018-09-20T13:14:00.862Z,1344.00
2018-09-20T13:15:53.390Z,1316.00
2018-09-20T13:16:53.421Z,1304.00
2018-09-20T13:18:46.151Z,1292.00
2018-09-20T13:19:46.160Z,1308.00
2018-09-20T13:21:39.252Z,1308.00
2018-09-20T13:22:39.129Z,1328.00
2018-09-20T13:24:32.063Z,1336.00
2018-09-20T13:25:32.844Z,1340.00
2018-09-20T13:27:24.949Z,1340.00
2018-09-20T13:28:24.925Z,1344.00
2018-09-20T13:30:18.356Z,1356.00
2018-09-20T13:31:18.347Z,1352.00
2018-09-20T13:33:11.262Z,1360.00
2018-09-20T13:34:11.253Z,1364.00
2018-09-20T13:36:04.658Z,1332.00
2018-09-20T13:37:04.914Z,1308.00
2018-09-20T13:38:58.081Z,1336.00
2018-09-20T13:39:57.545Z,1380.00
2018-09-20T13:41:50.967Z,1440.00
2018-09-20T13:42:50.951Z,1456.00
2018-09-20T13:44:44.900Z,1456.00
2018-09-20T13:45:44.352Z,1444.00
2018-09-20T13:47:37.319Z,1424.00
2018-09-20T13:48:37.261Z,1396.00
2018-09-20T13:50:30.644Z,1384.00
2018-09-20T13:51:30.620Z,1356.00
2018-09-20T13:53:23.640Z,1300.00
2018-09-20T13:54:23.514Z,1300.00
2018-09-20T13:56:16.549Z,1332.00
2018-09-20T13:57:17.152Z,1356.00
2018-09-20T13:59:09.329Z,1420.00
2018-09-20T14:00:09.347Z,1468.00
2018-09-20T14:02:02.344Z,1540.00
2018-09-20T14:03:02.182Z,1548.00
2018-09-20T14:04:55.114Z,1504.00
2018-09-20T14:05:55.120Z,1528.00
2018-09-20T14:07:48.535Z,1484.00
2018-09-20T14:08:48.487Z,1440.00
2018-09-20T14:10:41.435Z,1384.00
2018-09-20T14:11:41.915Z,1384.00
2018-09-20T14:13:34.318Z,1376.00
2018-09-20T14:14:34.294Z,1380.00
2018-09-20T14:16:27.189Z,1380.00
2018-09-20T14:17:27.250Z,1380.00
2018-09-20T14:19:20.575Z,1392.00
2018-09-20T14:20:20.550Z,1420.00
2018-09-20T14:22:13.973Z,1408.00
2018-09-20T14:23:13.459Z,1424.00
2018-09-20T14:25:06.895Z,1436.00
2018-09-20T14:26:06.827Z,1456.00
2018-09-20T14:28:00.237Z,1452.00
2018-09-20T14:29:00.223Z,1444.00
2018-09-20T14:30:54.218Z,1456.00
2018-09-20T14:31:53.154Z,1468.00
2018-09-20T14:33:46.077Z,1448.00
2018-09-20T14:34:46.045Z,1428.00
2018-09-20T14:36:39.502Z,1356.00
2018-09-20T14:37:39.434Z,1324.00
2018-09-20T14:39:32.874Z,1284.00
2018-09-20T14:40:32.833Z,1260.00
2018-09-20T14:42:25.732Z,1268.00
2018-09-20T14:43:25.724Z,1256.00
2018-09-20T14:45:19.201Z,1228.00
2018-09-20T14:46:18.627Z,1216.00
2018-09-20T14:48:11.527Z,1200.00
2018-09-20T14:49:11.508Z,1188.00
2018-09-20T14:51:04.413Z,1176.00
2018-09-20T14:52:04.401Z,1172.00
2018-09-20T14:53:57.504Z,1172.00
2018-09-20T14:54:57.286Z,1172.00
2018-09-20T14:56:50.219Z,1164.00
2018-09-20T14:57:50.206Z,1164.00
2018-09-20T14:59:43.165Z,1156.00
2018-09-20T15:00:43.093Z,1148.00
2018-09-20T15:02:36.594Z,1144.00
2018-09-20T15:03:35.986Z,1140.00
2018-09-20T15:05:29.391Z,1136.00
2018-09-20T15:06:29.384Z,1128.00
2018-09-20T15:08:22.361Z,1128.00
2018-09-20T15:09:22.269Z,1128.00
2018-09-20T15:11:15.776Z,1124.00
2018-09-20T15:12:15.661Z,1112.00
2018-09-20T15:14:08.612Z,1104.00
2018-09-20T15:15:08.627Z,1100.00
2018-09-20T15:17:01.603Z,1088.00
2018-09-20T15:18:02.006Z,1076.00
2018-09-20T15:19:54.468Z,1052.00
2018-09-20T15:20:54.332Z,1032.00
2018-09-20T15:22:47.726Z,1032.00
2018-09-20T15:23:47.728Z,1016.00
2018-09-20T15:25:41.144Z,1032.00
2018-09-20T15:26:41.120Z,1036.00
2018-09-20T15:28:34.635Z,1052.00
2018-09-20T15:29:34.505Z,1072.00
2018-09-20T15:31:27.495Z,1088.00
2018-09-20T15:32:27.410Z,1100.00
2018-09-20T15:34:20.899Z,1132.00
2018-09-20T15:35:20.784Z,1140.00
2018-09-20T15:37:13.697Z,1116.00
2018-09-20T15:38:13.682Z,1108.00
2018-09-20T15:40:07.651Z,1120.00
2018-09-20T15:41:07.070Z,1132.00
2018-09-20T15:43:01.998Z,1152.00
2018-09-20T15:44:00.098Z,1148.00
2018-09-20T15:45:53.853Z,1140.00
2018-09-20T15:46:53.345Z,1132.00
2018-09-20T15:48:48.509Z,1136.00
2018-09-20T15:49:47.315Z,1144.00
2018-09-20T15:51:40.809Z,1160.00
2018-09-20T15:52:40.676Z,1152.00
2018-09-20T15:54:34.080Z,1108.00
2018-09-20T15:55:34.074Z,1088.00
2018-09-20T15:58:18.604Z,1072.00
2018-09-20T15:59:18.549Z,1072.00
2018-09-20T16:01:12.002Z,1064.00
2018-09-20T16:02:11.470Z,1056.00
2018-09-20T16:04:05.014Z,1052.00
2018-09-20T16:05:04.881Z,1052.00
2018-09-20T16:06:58.242Z,1060.00
2018-09-20T16:07:58.239Z,1064.00
2018-09-20T16:09:51.189Z,1064.00
2018-09-20T16:10:51.134Z,1056.00
2018-09-20T16:12:44.095Z,1040.00
2018-09-20T16:13:44.090Z,1028.00
2018-09-20T16:15:38.490Z,988.00
2018-09-20T16:16:38.448Z,964.00
2018-09-20T16:18:31.888Z,920.00
2018-09-20T16:19:31.847Z,900.00
2018-09-20T16:21:24.743Z,864.00
2018-09-20T16:22:24.725Z,856.00
2018-09-20T16:24:18.700Z,876.00
2018-09-20T16:25:18.690Z,888.00
2018-09-20T16:27:12.145Z,896.00
2018-09-20T16:28:11.565Z,884.00
2018-09-20T16:30:04.963Z,868.00
2018-09-20T16:31:04.840Z,860.00
2018-09-20T16:32:58.239Z,852.00
2018-09-20T16:33:58.229Z,836.00
2018-09-20T16:35:51.648Z,832.00
2018-09-20T16:36:51.627Z,832.00
2018-09-20T16:38:44.724Z,824.00
2018-09-20T16:39:44.524Z,812.00
2018-09-20T16:41:37.496Z,768.00
2018-09-20T16:42:37.409Z,740.00
2018-09-20T16:44:30.814Z,720.00
2018-09-20T16:45:30.801Z,728.00
2018-09-20T16:47:24.132Z,736.00
2018-09-20T16:48:24.114Z,732.00
2018-09-20T16:50:17.528Z,712.00
2018-09-20T16:51:17.511Z,680.00
2018-09-20T16:53:10.481Z,628.00
2018-09-20T16:54:10.425Z,612.00
2018-09-20T16:56:03.306Z,592.00
2018-09-20T16:57:03.326Z,588.00
2018-09-20T16:58:56.686Z,564.00
2018-09-20T16:59:56.681Z,548.00
2018-09-20T17:01:49.580Z,520.00
2018-09-20T17:02:49.568Z,500.00
2018-09-20T17:04:42.965Z,476.00
2018-09-20T17:05:42.960Z,452.00
2018-09-20T17:07:36.950Z,404.00
2018-09-20T17:08:35.862Z,376.00
2018-09-20T17:10:28.784Z,332.00
2018-09-20T17:11:28.736Z,312.00
2018-09-20T17:13:22.767Z,292.00
2018-09-20T17:14:21.992Z,284.00
2018-09-20T17:16:15.483Z,256.00
2018-09-20T17:17:15.390Z,236.00
2018-09-20T17:19:08.243Z,188.00
2018-09-20T17:20:08.260Z,172.00
2018-09-20T17:22:01.690Z,148.00
2018-09-20T17:23:01.654Z,136.00
2018-09-20T17:24:54.996Z,116.00
2018-09-20T17:25:54.979Z,104.00
2018-09-20T17:27:48.386Z,92.00
2018-09-20T17:28:48.501Z,84.00
2018-09-20T17:30:42.335Z,72.00
2018-09-20T17:31:42.794Z,64.00
2018-09-20T17:33:38.230Z,56.00
2018-09-20T17:34:36.356Z,52.00
2018-09-20T17:36:29.436Z,44.00
2018-09-20T17:37:29.097Z,40.00
2018-09-20T17:39:22.843Z,32.00
2018-09-20T17:40:22.465Z,28.00
2018-09-20T17:42:16.451Z,24.00
2018-09-20T17:43:15.994Z,20.00
2018-09-20T17:45:09.291Z,16.00
2018-09-20T17:46:09.299Z,12.00
2018-09-20T17:48:02.136Z,12.00
2018-09-20T17:49:02.132Z,8.00
2018-09-20T17:50:55.300Z,8.00
2018-09-20T17:51:55.088Z,4.00
2018-09-20T17:53:48.631Z,4.00
2018-09-20T17:54:48.419Z,0.00
2018-09-20T17:56:42.357Z,4.00
2018-09-20T17:57:41.793Z,0.00
2018-09-20T17:59:35.210Z,0.00
2018-09-20T18:00:35.180Z,0.00
2018-09-20T18:02:28.802Z,0.00
2018-09-20T18:03:28.563Z,0.00
2018-09-20T18:05:21.551Z,0.00
2018-09-20T18:06:21.676Z,0.00